• Join FlightAware (Why Join?)
  • Login
  • US Flag 
12:03AM EST


 

Airport Tracker/Info


-or-


 

Live Flight TrackerFlight Track Log ✈ AIE860 ✈ 05-May-2013 ✈ CYVP - CYZG

Flight Track Log - Related Links

Times and Time Zones

All times are in EDT time to prevent confusion due to time zone crossing. See the AIE860 flight status page for this flight to view local times or setup timezone preferences in your user account.

Time Position Orientation Groundspeed Altitude Reporting Facility
EDT Latitude Longitude Course Direction KTS MPH feet Rate Location/Type
08:11AM 58.4191 -68.9285 322° Northwest  Level FlightAware Approximate
08:12AM 58.4679 -69.0016 322° Northwest  Level FlightAware Approximate
08:13AM 58.5166 -69.0748 322° Northwest  Level FlightAware Approximate
08:14AM 58.5651 -69.1488 321° Northwest  Level FlightAware Approximate
08:15AM 58.6134 -69.2233 321° Northwest  Level FlightAware Approximate
08:16AM 58.6617 -69.2980 321° Northwest  Level FlightAware Approximate
08:17AM 58.7100 -69.3729 321° Northwest  Level FlightAware Approximate
08:18AM 58.7578 -69.4488 320° Northwest  Level FlightAware Approximate
08:19AM 58.8055 -69.5251 320° Northwest  Level FlightAware Approximate
08:20AM 58.8532 -69.6016 320° Northwest  Level FlightAware Approximate
08:21AM 58.9014 -69.6770 322° Northwest  Level FlightAware Approximate
08:22AM 58.9505 -69.7503 322° Northwest  Level FlightAware Approximate
08:23AM 58.9996 -69.8238 322° Northwest  Level FlightAware Approximate
08:24AM 59.0486 -69.8976 322° Northwest  Level FlightAware Approximate
08:25AM 59.0972 -69.9724 320° Northwest  Level FlightAware Approximate
08:26AM 59.1448 -70.0497 320° Northwest  Level FlightAware Approximate
08:27AM 59.1924 -70.1271 320° Northwest  Level FlightAware Approximate
08:28AM 59.2398 -70.2051 320° Northwest  Level FlightAware Approximate
08:29AM 59.2870 -70.2837 320° Northwest  Level FlightAware Approximate
08:30AM 59.3342 -70.3625 320° Northwest  Level FlightAware Approximate
08:31AM 59.3813 -70.4415 320° Northwest  Level FlightAware Approximate
08:32AM 59.4284 -70.5208 319° Northwest  Level FlightAware Approximate
08:33AM 59.4754 -70.6002 319° Northwest  Level FlightAware Approximate
08:34AM 59.5224 -70.6799 319° Northwest  Level FlightAware Approximate
08:35AM 59.5693 -70.7598 319° Northwest  Level FlightAware Approximate
08:36AM 59.6162 -70.8399 319° Northwest  Level FlightAware Approximate
08:37AM 59.6631 -70.9203 319° Northwest  Level FlightAware Approximate
08:38AM 59.7098 -71.0008 319° Northwest  Level FlightAware Approximate
08:39AM 59.7566 -71.0816 319° Northwest  Level FlightAware Approximate
08:40AM 59.8032 -71.1627 319° Northwest  Level FlightAware Approximate
08:41AM 59.8499 -71.2439 319° Northwest  Level FlightAware Approximate
08:42AM 59.8965 -71.3254 319° Northwest  Level FlightAware Approximate
08:43AM 59.9430 -71.4071 319° Northwest  Level FlightAware Approximate
08:44AM 59.9895 -71.4890 319° Northwest  Level FlightAware Approximate
08:45AM 60.0359 -71.5711 319° Northwest  Level FlightAware Approximate
08:46AM 60.0827 -71.6525 319° Northwest  Level FlightAware Approximate
08:47AM 60.1295 -71.7341 319° Northwest  Level FlightAware Approximate
08:48AM 60.1762 -71.8160 319° Northwest  Level FlightAware Approximate
08:49AM 60.2229 -71.8981 319° Northwest  Level FlightAware Approximate
08:50AM 60.2695 -71.9804 319° Northwest  Level FlightAware Approximate
08:51AM 60.3161 -72.0629 319° Northwest  Level FlightAware Approximate
08:52AM 60.3626 -72.1457 319° Northwest  Level FlightAware Approximate
08:53AM 60.4091 -72.2287 319° Northwest  Level FlightAware Approximate
08:54AM 60.4555 -72.3120 319° Northwest  Level FlightAware Approximate
08:55AM 60.5018 -72.3955 318° Northwest  Level FlightAware Approximate
08:56AM 60.5481 -72.4792 318° Northwest  Level FlightAware Approximate
08:57AM 60.5944 -72.5632 318° Northwest  Level FlightAware Approximate
08:58AM 60.6406 -72.6474 318° Northwest  Level FlightAware Approximate
08:59AM 60.6868 -72.7319 318° Northwest  Level FlightAware Approximate
09:00AM 60.7329 -72.8166 318° Northwest  Level FlightAware Approximate
09:01AM 60.7789 -72.9015 318° Northwest  Level FlightAware Approximate
09:02AM 60.8249 -72.9867 318° Northwest  Level FlightAware Approximate
09:03AM 60.8705 -73.0728 317° Northwest  Level FlightAware Approximate
09:04AM 60.9158 -73.1599 317° Northwest  Level FlightAware Approximate
09:05AM 60.9610 -73.2473 317° Northwest  Level FlightAware Approximate
09:06AM 61.0061 -73.3349 317° Northwest  Level FlightAware Approximate
09:07AM 61.0512 -73.4227 317° Northwest  Level FlightAware Approximate
09:08AM 61.0962 -73.5108 317° Northwest  Level FlightAware Approximate
09:09AM 61.1411 -73.5992 317° Northwest  Level FlightAware Approximate
09:10AM 61.1867 -73.6862 318° Northwest  Level FlightAware Approximate
09:11AM 61.2325 -73.7730 318° Northwest  Level FlightAware Approximate
09:12AM 61.2782 -73.8601 318° Northwest  Level FlightAware Approximate
09:13AM 61.3238 -73.9474 317° Northwest  Level FlightAware Approximate
09:14AM 61.3694 -74.0350 317° Northwest  Level FlightAware Approximate
09:15AM 61.4149 -74.1229 317° Northwest  Level FlightAware Approximate
09:16AM 61.4604 -74.2110 317° Northwest  Level FlightAware Approximate
09:17AM 61.5058 -74.2994 317° Northwest  Level FlightAware Approximate
09:18AM 61.5512 -74.3880 317° Northwest  Level FlightAware Approximate
09:19AM 61.5965 -74.4769 317° Northwest  Level FlightAware Approximate
09:20AM 61.6416 -74.5663 317° Northwest  Level FlightAware Approximate
09:21AM 61.6866 -74.6562 317° Northwest  Level FlightAware Approximate
09:22AM 61.7315 -74.7463 316° Northwest  Level FlightAware Approximate
09:23AM 61.7744 -74.8408 314° West  Level FlightAware Approximate
09:24AM 61.8172 -74.9357 314° West  Level FlightAware Approximate
09:25AM 61.8599 -75.0309 314° West  Level FlightAware Approximate
09:26AM 61.9049 -75.1209 321° Northwest  Level FlightAware Approximate
09:27AM 61.9528 -75.2046 321° Northwest  Level FlightAware Approximate
09:28AM 62.0006 -75.2885 321° Northwest  Level FlightAware Approximate
09:29AM 62.0445 -75.3815 312° West  Level FlightAware Approximate
09:30AM 62.0831 -75.4787 321° Northwest  Level FlightAware Approximate
09:31AM 62.1311 -75.5627 321° Northwest  Level FlightAware Approximate
09:32AM 62.1667 -75.6667 306° West  Level FlightAware Approximate
09:33AM 62.1792 -75.6669 306° West  Level Estimated
09:34AM 62.1792 -75.6669 306° West  Level Estimated
09:35AM 62.1792 -75.6669 306° West  Level Estimated
09:36AM 62.1792 -75.6669 306° West  Level Estimated
09:37AM 62.1792 -75.6669 306° West  Level Estimated
09:38AM 62.1792 -75.6669 306° West  Level Estimated
09:39AM 62.1792 -75.6669 306° West  Level Estimated
09:40AM 62.1792 -75.6669 306° West  Level Estimated
09:41AM 62.1792 -75.6669 306° West  Level Estimated
09:42AM 62.1792 -75.6669 306° West  Level Estimated
09:43AM 62.1792 -75.6669 306° West  Level Estimated
09:44AM 62.1792 -75.6669 306° West  Level Estimated
09:45AM 62.1792 -75.6669 306° West  Level Estimated
09:46AM 62.1792 -75.6669 306° West  Level Estimated
09:47AM 62.1792 -75.6669 306° West  Level Estimated